Time;durP1;ratioP1;P1;durP2;ratioP2;P2;SDS_P1;SDS_P2;PMS_P1;PMS_P2;Temp;Humidity;BMP_temperature;BMP_pressure;BME280_temperature;BME280_humidity;BME280_pressure;Samples;Min_cycle;Max_cycle;Signal;HPM_P1;HPM_P2
2021/07/14 00:00:30;;;;;;;1.25;0.80;;;10.90;99.90;;;;;;2047429;28;20176;-72
2021/07/14 00:01:32;;;;;;;1.40;0.80;;;11.00;99.90;;;;;;2055466;28;20580;-73
2021/07/14 00:02:33;;;;;;;0.75;0.75;;;11.00;99.90;;;;;;2055506;28;20338;-73
2021/07/14 00:03:34;;;;;;;0.93;0.93;;;10.90;99.90;;;;;;2056216;28;20217;-73
2021/07/14 00:04:37;;;;;;;0.90;0.90;;;10.90;99.90;;;;;;2055448;28;20183;-72
2021/07/14 00:05:39;;;;;;;0.77;0.75;;;10.90;99.90;;;;;;2047513;29;20175;-73
2021/07/14 00:06:39;;;;;;;0.52;0.52;;;10.90;99.90;;;;;;2047919;28;20206;-76
2021/07/14 00:07:40;;;;;;;0.50;0.50;;;10.90;99.90;;;;;;2047848;28;20184;-73
2021/07/14 00:08:42;;;;;;;1.00;1.00;;;10.90;99.90;;;;;;2047501;28;20740;-73
2021/07/14 00:09:43;;;;;;;1.52;1.42;;;10.90;99.90;;;;;;2063527;28;20802;-73
2021/07/14 00:10:44;;;;;;;1.00;1.00;;;10.90;99.90;;;;;;2018532;28;1073489;-72
2021/07/14 00:11:54;;;;;;;0.70;0.70;;;10.90;99.90;;;;;;2047812;29;20222;-73
2021/07/14 00:14:15;;;;;;;0.80;0.80;;;10.80;99.90;;;;;;2054008;28;20181;-73
2021/07/14 00:22:53;;;;;;;2.28;1.23;;;10.70;99.90;;;;;;2057154;28;20162;-72
2021/07/14 00:23:54;;;;;;;0.60;0.60;;;10.70;99.90;;;;;;2056556;28;20179;-73
2021/07/14 00:24:55;;;;;;;0.87;0.87;;;10.70;99.90;;;;;;2056503;28;20195;-73
2021/07/14 00:25:56;;;;;;;1.27;0.80;;;10.70;99.90;;;;;;2056469;28;20178;-72
2021/07/14 00:26:56;;;;;;;0.97;0.77;;;10.70;99.90;;;;;;2048508;29;20175;-73
2021/07/14 00:27:57;;;;;;;0.50;0.50;;;10.60;99.90;;;;;;2048531;28;20226;-73
2021/07/14 00:28:58;;;;;;;1.17;1.13;;;10.60;99.90;;;;;;2056416;28;20248;-73
2021/07/14 00:30:07;;;;;;;0.80;0.80;;;10.50;99.90;;;;;;2056433;28;20182;-73
2021/07/14 00:31:13;;;;;;;1.40;1.30;;;10.60;99.90;;;;;;2056999;28;20202;-72
2021/07/14 00:32:15;;;;;;;1.00;1.00;;;10.50;99.90;;;;;;2056445;28;20255;-73
2021/07/14 00:33:16;;;;;;;1.50;1.40;;;10.50;99.90;;;;;;2048223;28;20732;-72
2021/07/14 00:34:17;;;;;;;0.70;0.70;;;10.50;99.90;;;;;;2048594;28;20179;-72
2021/07/14 00:35:18;;;;;;;0.80;0.80;;;10.50;99.90;;;;;;2048531;29;20187;-72
2021/07/14 00:36:19;;;;;;;1.60;1.42;;;10.50;99.90;;;;;;2048525;28;20194;-73
2021/07/14 00:37:20;;;;;;;0.70;0.70;;;10.50;99.90;;;;;;2056355;28;20182;-73
2021/07/14 00:38:21;;;;;;;1.50;1.30;;;10.50;99.90;;;;;;2048395;28;20682;-73
2021/07/14 00:39:22;;;;;;;1.77;0.57;;;10.50;99.90;;;;;;2048264;28;20210;-74
2021/07/14 00:40:22;;;;;;;0.70;0.70;;;10.60;99.90;;;;;;2056781;28;20657;-73
2021/07/14 00:41:23;;;;;;;2.13;0.77;;;10.60;99.90;;;;;;2056411;28;20199;-73
2021/07/14 00:42:25;;;;;;;1.00;0.90;;;10.60;99.90;;;;;;2048403;29;20670;-72
2021/07/14 00:43:25;;;;;;;1.65;1.00;;;10.60;99.90;;;;;;2048500;28;20233;-73
2021/07/14 00:44:26;;;;;;;1.10;1.03;;;10.60;99.90;;;;;;2056240;28;20189;-72
2021/07/14 00:45:27;;;;;;;0.60;0.60;;;10.60;99.90;;;;;;2056341;28;20596;-73
2021/07/14 00:46:28;;;;;;;0.93;0.93;;;10.60;99.90;;;;;;2055858;28;20195;-73
2021/07/14 00:47:32;;;;;;;0.70;0.70;;;10.60;99.90;;;;;;2048386;29;20242;-73
2021/07/14 00:48:32;;;;;;;1.38;1.27;;;10.50;99.90;;;;;;2048742;28;20182;-72
2021/07/14 00:49:34;;;;;;;1.00;0.97;;;10.50;99.90;;;;;;2056241;28;20273;-73
2021/07/14 00:50:36;;;;;;;0.90;0.90;;;10.60;99.90;;;;;;2056075;28;20261;-73
2021/07/14 00:51:37;;;;;;;0.47;0.47;;;10.60;99.90;;;;;;2056183;28;20701;-73
2021/07/14 00:52:37;;;;;;;0.93;0.63;;;10.60;99.90;;;;;;2056241;28;20230;-72
2021/07/14 00:53:40;;;;;;;1.37;1.13;;;10.50;99.90;;;;;;2048346;29;20179;-72
2021/07/14 00:54:43;;;;;;;0.85;0.85;;;10.50;99.90;;;;;;2048431;28;20270;-72
2021/07/14 00:55:43;;;;;;;0.85;0.85;;;10.50;99.90;;;;;;2056244;28;20585;-73
2021/07/14 00:56:46;;;;;;;0.80;0.80;;;10.50;99.90;;;;;;2056182;28;20174;-72
2021/07/14 00:57:47;;;;;;;1.33;1.20;;;10.50;99.90;;;;;;2048302;28;20183;-72
2021/07/14 00:58:48;;;;;;;0.90;0.90;;;10.50;99.90;;;;;;2048249;28;20179;-72
2021/07/14 00:59:49;;;;;;;0.47;0.47;;;10.50;99.90;;;;;;2048162;28;20285;-73
2021/07/14 01:00:50;;;;;;;1.23;1.20;;;10.40;99.90;;;;;;2047824;29;20549;-72
2021/07/14 01:01:51;;;;;;;0.95;0.90;;;10.40;99.90;;;;;;2056268;28;20182;-73
2021/07/14 01:02:51;;;;;;;1.03;1.00;;;10.40;99.90;;;;;;2056748;28;20194;-72
2021/07/14 01:04:10;;;;;;;0.67;0.67;;;10.50;99.90;;;;;;2056286;28;20186;-72
2021/07/14 01:05:22;;;;;;;1.02;1.02;;;10.50;99.90;;;;;;2056337;28;20237;-72
2021/07/14 01:06:47;;;;;;;0.88;0.88;;;10.50;99.90;;;;;;2056134;28;20205;-72
2021/07/14 01:07:59;;;;;;;0.52;0.52;;;10.50;99.90;;;;;;2048211;28;20218;-72
2021/07/14 01:09:09;;;;;;;0.85;0.85;;;10.50;99.90;;;;;;2041815;29;20631;-72
2021/07/14 01:10:25;;;;;;;0.70;0.70;;;10.50;99.90;;;;;;2048102;29;20175;-73
2021/07/14 01:11:31;;;;;;;0.75;0.75;;;10.50;99.90;;;;;;2050144;28;20206;-73
2021/07/14 01:12:56;;;;;;;0.95;0.60;;;10.50;99.90;;;;;;2056774;28;20247;-72
2021/07/14 01:14:36;;;;;;;1.33;0.88;;;10.40;99.90;;;;;;2056172;28;20174;-72
2021/07/14 01:15:44;;;;;;;0.77;0.77;;;10.50;99.90;;;;;;2041776;28;20713;-72
2021/07/14 01:16:46;;;;;;;2.20;0.95;;;10.40;99.90;;;;;;2057206;28;20173;-73
2021/07/14 01:18:17;;;;;;;0.93;0.77;;;10.40;99.90;;;;;;2055920;28;20221;-72
2021/07/14 01:20:13;;;;;;;0.70;0.70;;;10.40;99.90;;;;;;2047098;29;20282;-72
2021/07/14 01:21:33;;;;;;;1.00;1.00;;;10.50;99.90;;;;;;2053712;28;20592;-72
2021/07/14 01:23:05;;;;;;;0.70;0.70;;;10.50;99.90;;;;;;2053637;28;20597;-72
2021/07/14 01:24:32;;;;;;;0.50;0.50;;;10.50;99.90;;;;;;2039939;29;20192;-72
2021/07/14 01:25:51;;;;;;;0.77;0.77;;;10.60;99.90;;;;;;2043533;29;20242;-73
2021/07/14 01:27:13;;;;;;;1.38;1.20;;;10.60;99.90;;;;;;2048211;29;20181;-72
2021/07/14 01:28:16;;;;;;;1.45;1.35;;;10.60;99.90;;;;;;2056034;28;20176;-72
2021/07/14 01:29:18;;;;;;;1.55;0.60;;;10.60;99.90;;;;;;2055698;28;20189;-72
2021/07/14 01:30:19;;;;;;;0.73;0.73;;;10.70;99.90;;;;;;2055843;28;20175;-72
2021/07/14 01:31:22;;;;;;;1.20;1.10;;;10.70;99.90;;;;;;2055996;28;20277;-72
2021/07/14 01:32:28;;;;;;;0.88;0.82;;;10.80;99.90;;;;;;2047932;28;20238;-72
2021/07/14 01:33:34;;;;;;;35.17;1.35;;;10.80;99.90;;;;;;2047957;29;20166;-72
2021/07/14 01:34:38;;;;;;;0.75;0.60;;;10.80;99.90;;;;;;2040210;29;20733;-72
2021/07/14 01:35:45;;;;;;;0.68;0.40;;;10.80;99.90;;;;;;2048433;28;20602;-73
2021/07/14 01:36:50;;;;;;;1.17;0.95;;;10.70;99.90;;;;;;2047263;29;20167;-72
2021/07/14 01:37:54;;;;;;;1.00;1.00;;;10.70;99.90;;;;;;2048627;28;20190;-72
2021/07/14 01:38:58;;;;;;;0.47;0.47;;;10.70;99.90;;;;;;2055556;28;20252;-72
2021/07/14 01:40:00;;;;;;;0.95;0.95;;;10.70;99.90;;;;;;2055942;28;20193;-73
2021/07/14 01:41:02;;;;;;;1.02;0.80;;;10.60;99.90;;;;;;2055609;28;20205;-72
2021/07/14 01:42:04;;;;;;;0.65;0.65;;;10.60;99.90;;;;;;2056061;28;20206;-72
2021/07/14 01:43:07;;;;;;;2.55;1.00;;;10.60;99.90;;;;;;2055904;28;20194;-72
2021/07/14 01:44:08;;;;;;;0.60;0.60;;;10.60;99.90;;;;;;2055895;28;20724;-72
2021/07/14 01:45:10;;;;;;;3.13;0.82;;;10.60;99.90;;;;;;2048091;29;20195;-72
2021/07/14 01:46:13;;;;;;;0.68;0.68;;;10.60;99.90;;;;;;2040313;29;20191;-72
2021/07/14 01:47:14;;;;;;;0.60;0.60;;;10.60;99.90;;;;;;2056097;28;20233;-72
2021/07/14 01:48:15;;;;;;;1.37;1.27;;;10.50;99.90;;;;;;2055913;28;20658;-72
2021/07/14 01:49:18;;;;;;;0.73;0.73;;;10.50;99.90;;;;;;2047918;28;20434;-72
2021/07/14 01:50:19;;;;;;;0.55;0.55;;;10.50;99.90;;;;;;2047723;29;20291;-72
2021/07/14 01:51:21;;;;;;;0.90;0.90;;;10.50;99.90;;;;;;2055880;28;20238;-72
2021/07/14 01:52:25;;;;;;;0.60;0.60;;;10.50;99.90;;;;;;2047693;28;20226;-72
2021/07/14 01:53:26;;;;;;;1.45;0.80;;;10.50;99.90;;;;;;2048387;28;20187;-72
2021/07/14 01:54:29;;;;;;;0.90;0.90;;;10.50;99.90;;;;;;2055702;28;20665;-72
2021/07/14 01:55:33;;;;;;;0.80;0.80;;;10.50;99.90;;;;;;2048066;29;20183;-72
2021/07/14 01:56:40;;;;;;;0.75;0.75;;;10.50;99.90;;;;;;2056025;28;20768;-72
2021/07/14 01:57:42;;;;;;;1.88;1.13;;;10.50;99.90;;;;;;2055354;28;20222;-72
2021/07/14 01:58:46;;;;;;;0.63;0.63;;;10.60;99.90;;;;;;2056447;28;20178;-72
2021/07/14 01:59:48;;;;;;;0.38;0.38;;;10.60;99.90;;;;;;2049164;29;20178;-71
2021/07/14 02:00:52;;;;;;;0.60;0.60;;;10.60;99.90;;;;;;2049456;28;20183;-73
2021/07/14 02:01:55;;;;;;;1.38;1.20;;;10.60;99.90;;;;;;2057245;28;20189;-73
2021/07/14 02:05:36;;;;;;;0.77;0.77;;;10.60;99.90;;;;;;2057407;28;20191;-73
2021/07/14 02:06:38;;;;;;;0.47;0.47;;;10.60;99.90;;;;;;2054361;28;20173;-73
2021/07/14 02:07:39;;;;;;;0.73;0.73;;;10.60;99.90;;;;;;2057437;28;20231;-73
2021/07/14 02:08:40;;;;;;;0.90;0.90;;;10.50;99.90;;;;;;2057553;28;20565;-73
2021/07/14 02:09:44;;;;;;;0.83;0.83;;;10.50;99.90;;;;;;2057419;28;20182;-73
2021/07/14 02:10:45;;;;;;;0.70;0.70;;;10.50;99.90;;;;;;2056690;28;20590;-73
2021/07/14 02:11:49;;;;;;;1.42;0.82;;;10.40;99.90;;;;;;2057440;28;20178;-73
2021/07/14 02:12:52;;;;;;;1.00;1.00;;;10.40;99.90;;;;;;2057006;28;20737;-73
2021/07/14 02:13:53;;;;;;;0.93;0.93;;;10.40;99.90;;;;;;2057377;28;20645;-73
2021/07/14 02:15:00;;;;;;;0.47;0.47;;;10.40;99.90;;;;;;2057443;28;20600;-73
2021/07/14 02:16:02;;;;;;;0.70;0.70;;;10.40;99.90;;;;;;2058197;28;20182;-73
2021/07/14 02:17:08;;;;;;;0.75;0.75;;;10.40;99.90;;;;;;2057268;28;20194;-73
2021/07/14 02:18:12;;;;;;;2.80;0.75;;;10.40;99.90;;;;;;2041603;29;20179;-73
2021/07/14 02:19:17;;;;;;;0.65;0.65;;;10.50;99.90;;;;;;2049931;28;20180;-73
2021/07/14 02:20:20;;;;;;;0.70;0.70;;;10.50;99.90;;;;;;2056665;28;20218;-73
2021/07/14 02:21:22;;;;;;;1.02;0.93;;;10.50;99.90;;;;;;2057256;28;20637;-73
2021/07/14 02:22:23;;;;;;;0.50;0.50;;;10.60;99.90;;;;;;2057252;28;20264;-73
2021/07/14 02:23:24;;;;;;;0.50;0.50;;;10.60;99.90;;;;;;2049494;29;20184;-73
2021/07/14 02:24:25;;;;;;;0.50;0.43;;;10.60;99.90;;;;;;2050105;29;20242;-73
2021/07/14 02:25:25;;;;;;;0.50;0.50;;;10.70;99.90;;;;;;2041502;29;20279;-74
2021/07/14 02:26:30;;;;;;;0.37;0.37;;;10.70;99.90;;;;;;2041419;29;20184;-74
2021/07/14 02:27:31;;;;;;;0.60;0.60;;;10.70;99.90;;;;;;2057455;28;20199;-73
2021/07/14 02:28:32;;;;;;;0.50;0.50;;;10.70;99.90;;;;;;2057490;28;20583;-73
2021/07/14 02:29:38;;;;;;;0.63;0.52;;;10.80;99.90;;;;;;2050051;29;20672;-74
2021/07/14 02:30:39;;;;;;;0.60;0.60;;;10.80;99.90;;;;;;2057071;28;20182;-73
2021/07/14 02:31:40;;;;;;;0.50;0.50;;;10.80;99.90;;;;;;2057242;28;20178;-73
2021/07/14 02:32:40;;;;;;;2.00;0.97;;;10.80;99.90;;;;;;2049367;29;20273;-74
2021/07/14 02:33:41;;;;;;;0.57;0.57;;;10.80;99.90;;;;;;2057360;28;20226;-74
2021/07/14 02:34:44;;;;;;;0.50;0.50;;;10.80;99.90;;;;;;2057231;28;20632;-74
2021/07/14 02:35:49;;;;;;;0.63;0.63;;;10.90;99.90;;;;;;2057387;28;20214;-73
2021/07/14 02:36:50;;;;;;;0.68;0.68;;;10.90;99.90;;;;;;2056778;28;20182;-73
2021/07/14 02:37:58;;;;;;;0.77;0.77;;;10.90;99.90;;;;;;2049381;29;20206;-73
2021/07/14 02:39:04;;;;;;;0.73;0.73;;;10.80;99.90;;;;;;2057320;28;20171;-73
2021/07/14 02:40:07;;;;;;;0.75;0.75;;;10.80;99.90;;;;;;2048549;29;20176;-74
2021/07/14 02:41:37;;;;;;;0.77;0.77;;;10.80;99.90;;;;;;2049548;28;20690;-73
2021/07/14 02:42:40;;;;;;;0.55;0.55;;;10.70;99.90;;;;;;2053494;28;20245;-74
2021/07/14 02:43:47;;;;;;;1.33;1.23;;;10.70;99.90;;;;;;2057288;28;20705;-73
2021/07/14 02:44:48;;;;;;;0.30;0.30;;;10.80;99.90;;;;;;2048458;29;20182;-73
2021/07/14 02:45:50;;;;;;;1.40;0.70;;;10.80;99.90;;;;;;2049315;28;20241;-73
2021/07/14 02:46:55;;;;;;;0.75;0.70;;;10.80;99.90;;;;;;2048998;28;20183;-74
2021/07/14 02:48:01;;;;;;;0.32;0.32;;;10.80;99.90;;;;;;2041827;29;20535;-73
2021/07/14 02:49:08;;;;;;;0.52;0.52;;;10.80;99.90;;;;;;2057202;28;20214;-73
2021/07/14 02:50:20;;;;;;;0.40;0.40;;;10.90;99.90;;;;;;2056395;28;20167;-73
2021/07/14 02:51:25;;;;;;;0.47;0.47;;;10.90;99.90;;;;;;2057206;28;20195;-74
2021/07/14 02:52:27;;;;;;;1.38;0.65;;;10.90;99.90;;;;;;2056733;28;20210;-73
2021/07/14 02:53:34;;;;;;;0.82;0.82;;;10.90;99.90;;;;;;2057131;28;20179;-73
2021/07/14 02:54:40;;;;;;;0.68;0.68;;;10.90;99.90;;;;;;2048612;29;20187;-73
2021/07/14 02:55:43;;;;;;;1.20;1.10;;;11.00;99.90;;;;;;2049868;28;20183;-73
2021/07/14 02:56:48;;;;;;;0.60;0.60;;;10.90;99.90;;;;;;2053966;28;20241;-73
2021/07/14 02:57:53;;;;;;;0.50;0.50;;;10.90;99.90;;;;;;2057768;28;20179;-73
2021/07/14 02:59:00;;;;;;;0.65;0.65;;;10.90;99.90;;;;;;2057098;28;20186;-73
2021/07/14 03:00:02;;;;;;;0.88;0.88;;;10.90;99.90;;;;;;2058087;28;20171;-73
2021/07/14 03:01:03;;;;;;;0.57;0.57;;;11.00;99.90;;;;;;2057073;28;20302;-73
2021/07/14 03:02:05;;;;;;;0.80;0.60;;;11.00;99.90;;;;;;2057252;28;20207;-74
2021/07/14 03:03:07;;;;;;;0.52;0.52;;;11.00;99.90;;;;;;2057259;28;20187;-74
2021/07/14 03:04:10;;;;;;;1.35;0.75;;;11.00;99.90;;;;;;2057248;28;20277;-73
2021/07/14 03:05:12;;;;;;;0.50;0.50;;;10.90;99.90;;;;;;2057238;28;20206;-73
2021/07/14 03:06:14;;;;;;;0.95;0.68;;;11.00;99.90;;;;;;2057311;28;20704;-73
2021/07/14 03:07:18;;;;;;;0.40;0.40;;;11.00;99.90;;;;;;2065118;28;20186;-74
2021/07/14 03:08:19;;;;;;;0.50;0.50;;;11.00;99.90;;;;;;2065176;28;20182;-73
2021/07/14 03:09:20;;;;;;;1.85;1.17;;;11.00;99.90;;;;;;2056810;28;20576;-73
2021/07/14 03:10:22;;;;;;;0.98;0.70;;;11.00;99.90;;;;;;2048692;28;20184;-73
2021/07/14 03:11:23;;;;;;;1.60;0.95;;;11.00;99.90;;;;;;2057210;28;20249;-73
2021/07/14 03:12:26;;;;;;;0.80;0.80;;;11.10;99.90;;;;;;2057116;28;20780;-74
2021/07/14 03:13:30;;;;;;;1.63;1.00;;;11.10;99.90;;;;;;2057061;28;20233;-73
2021/07/14 03:14:31;;;;;;;1.00;1.00;;;11.10;99.90;;;;;;2057377;28;20185;-73
2021/07/14 03:15:36;;;;;;;1.00;0.95;;;11.10;99.90;;;;;;2057091;28;20210;-73
2021/07/14 03:16:39;;;;;;;0.68;0.68;;;11.10;99.90;;;;;;2057603;28;20215;-73
2021/07/14 03:17:42;;;;;;;0.65;0.65;;;11.10;99.90;;;;;;2057145;28;20669;-73
2021/07/14 03:18:47;;;;;;;0.30;0.30;;;11.00;99.90;;;;;;2057353;28;20186;-73
2021/07/14 03:19:50;;;;;;;0.50;0.50;;;11.00;99.90;;;;;;2057073;28;20206;-74
2021/07/14 03:20:57;;;;;;;0.35;0.35;;;11.00;99.90;;;;;;2057683;28;20171;-74
2021/07/14 03:21:59;;;;;;;0.80;0.50;;;11.00;99.90;;;;;;2064341;28;20186;-73
2021/07/14 03:23:03;;;;;;;0.80;0.80;;;11.10;99.90;;;;;;2065139;28;20178;-73
2021/07/14 03:24:08;;;;;;;0.45;0.45;;;11.10;99.90;;;;;;2057131;28;20187;-73
2021/07/14 03:25:11;;;;;;;0.60;0.60;;;11.20;99.90;;;;;;2057486;28;20693;-73
2021/07/14 03:26:14;;;;;;;0.57;0.57;;;11.20;99.90;;;;;;2065000;28;20225;-73
2021/07/14 03:27:16;;;;;;;0.60;0.60;;;11.20;99.90;;;;;;2057065;28;20198;-73
2021/07/14 03:28:20;;;;;;;0.70;0.70;;;11.30;99.90;;;;;;2057079;28;20179;-73
2021/07/14 03:29:22;;;;;;;0.70;0.70;;;11.30;99.90;;;;;;2054890;28;20179;-73
2021/07/14 03:30:25;;;;;;;0.50;0.50;;;11.30;99.90;;;;;;2048932;28;20184;-73
2021/07/14 03:31:26;;;;;;;1.00;1.00;;;11.40;99.90;;;;;;2048987;29;20295;-73
2021/07/14 03:32:27;;;;;;;0.60;0.60;;;11.30;99.90;;;;;;2049216;28;20676;-73
2021/07/14 03:33:31;;;;;;;1.10;0.70;;;11.40;99.90;;;;;;2048969;29;20252;-73
2021/07/14 03:34:35;;;;;;;0.80;0.80;;;11.40;99.90;;;;;;2049447;28;20435;-73
2021/07/14 03:35:37;;;;;;;0.73;0.73;;;11.40;99.90;;;;;;2056847;28;20179;-73
2021/07/14 03:36:39;;;;;;;0.50;0.50;;;11.40;99.90;;;;;;2049005;29;20215;-73
2021/07/14 03:37:41;;;;;;;0.75;0.73;;;11.40;99.90;;;;;;2049406;28;20187;-73
2021/07/14 03:38:42;;;;;;;0.60;0.47;;;11.40;99.90;;;;;;2049088;29;20187;-73
2021/07/14 03:39:43;;;;;;;0.63;0.63;;;11.40;99.90;;;;;;2057074;28;20179;-73
2021/07/14 03:40:45;;;;;;;0.68;0.68;;;11.30;99.90;;;;;;2056743;28;20175;-73
2021/07/14 03:41:47;;;;;;;0.82;0.80;;;11.30;99.90;;;;;;2049081;28;20176;-73
2021/07/14 03:42:51;;;;;;;0.65;0.47;;;11.30;99.90;;;;;;2048992;28;20194;-73
2021/07/14 03:43:54;;;;;;;0.75;0.73;;;11.30;99.90;;;;;;2049095;29;20576;-73
2021/07/14 03:44:56;;;;;;;0.30;0.30;;;11.40;99.90;;;;;;2057239;28;20654;-73
2021/07/14 03:46:00;;;;;;;1.02;0.98;;;11.40;99.90;;;;;;2056726;28;20179;-73
2021/07/14 03:47:02;;;;;;;1.40;0.90;;;11.30;99.90;;;;;;2057312;28;20214;-73
2021/07/14 03:48:04;;;;;;;0.60;0.60;;;11.30;99.90;;;;;;2064973;28;20183;-73
2021/07/14 03:49:05;;;;;;;1.20;0.52;;;11.30;99.90;;;;;;2059596;28;20180;-74
2021/07/14 03:50:07;;;;;;;0.65;0.65;;;11.20;99.90;;;;;;2051467;28;20926;-74
2021/07/14 03:51:08;;;;;;;0.85;0.82;;;11.20;99.90;;;;;;2051242;28;20208;-73
2021/07/14 03:52:10;;;;;;;0.88;0.88;;;11.20;99.90;;;;;;2051024;29;20204;-73
2021/07/14 03:53:13;;;;;;;0.65;0.65;;;11.10;99.90;;;;;;2051427;28;20227;-73
2021/07/14 03:54:14;;;;;;;2.33;1.05;;;11.10;99.90;;;;;;2051026;28;20182;-74
2021/07/14 03:55:16;;;;;;;0.52;0.52;;;11.20;99.90;;;;;;2051002;28;20180;-73
2021/07/14 03:56:17;;;;;;;0.75;0.75;;;11.20;99.90;;;;;;2058291;28;20179;-73
2021/07/14 03:57:18;;;;;;;0.95;0.95;;;11.20;99.90;;;;;;2059346;28;20179;-73
2021/07/14 03:58:22;;;;;;;0.87;0.87;;;11.20;99.90;;;;;;2050573;28;20667;-73
2021/07/14 03:59:23;;;;;;;1.15;0.80;;;11.30;99.90;;;;;;2058554;28;20175;-74
2021/07/14 04:00:25;;;;;;;0.55;0.55;;;11.30;99.90;;;;;;2058235;28;20183;-73
2021/07/14 04:01:26;;;;;;;1.02;0.95;;;11.30;99.90;;;;;;2058235;28;20221;-73
2021/07/14 04:02:28;;;;;;;0.68;0.68;;;11.40;99.90;;;;;;2058270;28;20186;-74
2021/07/14 04:03:30;;;;;;;0.50;0.50;;;11.50;99.90;;;;;;2050386;28;20214;-74
2021/07/14 04:04:31;;;;;;;1.90;1.08;;;11.50;99.90;;;;;;2058136;28;20690;-73
2021/07/14 04:05:32;;;;;;;0.60;0.60;;;11.40;99.90;;;;;;2050283;29;20180;-73
2021/07/14 04:06:35;;;;;;;0.40;0.40;;;11.50;99.90;;;;;;2058218;28;20188;-73
2021/07/14 04:07:41;;;;;;;1.00;0.80;;;11.40;99.90;;;;;;2050251;29;20195;-73
2021/07/14 04:08:49;;;;;;;0.70;0.70;;;11.40;99.90;;;;;;2051013;28;20183;-73
2021/07/14 04:09:49;;;;;;;1.13;0.50;;;11.40;99.90;;;;;;2050334;29;20179;-74
2021/07/14 04:10:50;;;;;;;0.87;0.87;;;11.40;99.90;;;;;;2049862;29;20251;-73
2021/07/14 04:11:55;;;;;;;0.80;0.80;;;11.30;99.90;;;;;;2058816;28;20232;-74
2021/07/14 04:12:56;;;;;;;1.38;0.80;;;11.40;99.90;;;;;;2058233;28;20273;-73
2021/07/14 04:13:57;;;;;;;0.63;0.63;;;11.30;99.90;;;;;;2058001;28;20258;-74
2021/07/14 04:14:57;;;;;;;0.73;0.70;;;11.40;99.90;;;;;;2058186;28;20280;-74
2021/07/14 04:15:58;;;;;;;0.70;0.70;;;11.50;99.90;;;;;;2058214;28;20191;-74
2021/07/14 04:16:59;;;;;;;0.77;0.77;;;11.50;99.90;;;;;;2058777;28;20206;-74
2021/07/14 04:17:59;;;;;;;1.00;0.93;;;11.50;99.90;;;;;;2058700;28;20238;-73
2021/07/14 04:19:01;;;;;;;0.87;0.50;;;11.50;99.90;;;;;;2058752;28;20186;-73
2021/07/14 04:20:02;;;;;;;0.85;0.85;;;11.60;99.90;;;;;;2058056;28;20658;-73
2021/07/14 04:21:03;;;;;;;0.43;0.43;;;11.70;99.90;;;;;;2049805;28;20212;-74
2021/07/14 04:22:06;;;;;;;0.80;0.80;;;11.70;99.90;;;;;;2049757;28;20184;-72
2021/07/14 04:23:06;;;;;;;0.60;0.60;;;11.60;99.90;;;;;;2058253;28;20191;-74
2021/07/14 04:24:07;;;;;;;0.47;0.47;;;11.60;99.90;;;;;;2058066;28;20194;-73
2021/07/14 04:25:09;;;;;;;0.40;0.40;;;11.50;99.90;;;;;;2058082;28;20187;-73
2021/07/14 04:26:09;;;;;;;0.50;0.50;;;11.50;99.90;;;;;;2066047;28;20193;-73
2021/07/14 04:27:11;;;;;;;0.87;0.87;;;11.50;99.90;;;;;;2058077;28;20257;-73
2021/07/14 04:28:12;;;;;;;1.10;0.73;;;11.50;99.90;;;;;;2058113;28;20183;-73
2021/07/14 04:29:13;;;;;;;0.57;0.57;;;11.60;99.90;;;;;;2058654;28;20570;-73
2021/07/14 04:30:16;;;;;;;0.63;0.60;;;11.60;99.90;;;;;;2058588;28;20189;-73
2021/07/14 04:31:17;;;;;;;0.77;0.77;;;11.60;99.90;;;;;;2058221;28;20496;-74
2021/07/14 04:32:18;;;;;;;0.83;0.83;;;11.60;99.90;;;;;;2050090;29;20748;-74
2021/07/14 04:33:18;;;;;;;0.77;0.77;;;11.70;99.90;;;;;;2050114;29;20183;-74
2021/07/14 04:34:19;;;;;;;0.73;0.73;;;11.70;99.90;;;;;;2058739;28;20382;-74
2021/07/14 04:35:20;;;;;;;0.57;0.57;;;11.80;99.90;;;;;;2057987;28;20172;-73
2021/07/14 04:36:20;;;;;;;0.83;0.83;;;11.80;99.90;;;;;;2058135;28;20179;-74
2021/07/14 04:37:21;;;;;;;0.93;0.93;;;11.90;99.90;;;;;;2058337;28;20229;-73
2021/07/14 04:38:22;;;;;;;0.40;0.40;;;11.90;99.90;;;;;;2058194;28;20661;-73
2021/07/14 04:39:23;;;;;;;1.27;1.17;;;11.90;99.90;;;;;;2057905;28;20258;-73
2021/07/14 04:40:24;;;;;;;0.67;0.67;;;12.00;99.90;;;;;;2057708;28;20187;-73
2021/07/14 04:41:26;;;;;;;0.60;0.60;;;12.00;99.90;;;;;;2058028;28;20209;-73
2021/07/14 04:42:27;;;;;;;0.73;0.70;;;12.10;99.90;;;;;;2049892;28;20697;-73
2021/07/14 04:43:29;;;;;;;0.67;0.60;;;12.10;99.90;;;;;;2050057;28;20187;-73
2021/07/14 04:44:33;;;;;;;0.55;0.55;;;12.20;99.90;;;;;;2058345;28;20202;-73
2021/07/14 04:45:33;;;;;;;0.45;0.45;;;12.20;99.90;;;;;;2058575;28;20179;-73
2021/07/14 04:46:34;;;;;;;1.03;0.97;;;12.20;99.90;;;;;;2057950;28;20182;-73
2021/07/14 04:47:35;;;;;;;0.53;0.53;;;12.30;99.90;;;;;;2057971;28;20222;-74
2021/07/14 04:48:35;;;;;;;0.80;0.80;;;12.20;99.90;;;;;;2058353;28;20190;-73
2021/07/14 04:49:36;;;;;;;1.07;0.97;;;12.30;99.90;;;;;;2058384;28;20263;-73
2021/07/14 04:50:37;;;;;;;0.70;0.70;;;12.30;99.90;;;;;;2058062;28;20191;-73
2021/07/14 04:51:37;;;;;;;1.80;0.60;;;12.30;99.90;;;;;;2057718;28;20246;-74
2021/07/14 04:52:38;;;;;;;0.60;0.60;;;12.30;99.90;;;;;;2049786;29;20176;-73
2021/07/14 04:53:39;;;;;;;0.53;0.53;;;12.30;99.90;;;;;;2050000;29;20234;-74
2021/07/14 04:54:41;;;;;;;0.67;0.67;;;12.30;99.90;;;;;;2057716;28;20251;-74
2021/07/14 04:55:42;;;;;;;0.68;0.68;;;12.30;99.90;;;;;;2057395;28;20175;-74
2021/07/14 04:56:44;;;;;;;0.70;0.70;;;12.30;99.90;;;;;;2054574;28;20318;-73
2021/07/14 04:57:45;;;;;;;0.60;0.60;;;12.40;99.90;;;;;;2055913;28;20684;-73
2021/07/14 04:58:47;;;;;;;0.40;0.40;;;12.40;99.90;;;;;;2056767;28;20229;-73
2021/07/14 04:59:47;;;;;;;0.73;0.70;;;12.40;99.90;;;;;;2055972;28;20175;-73
2021/07/14 05:00:48;;;;;;;0.33;0.33;;;12.40;99.90;;;;;;2055378;28;20545;-73
2021/07/14 05:01:49;;;;;;;1.80;0.83;;;12.40;99.90;;;;;;2055913;28;20190;-73
2021/07/14 05:02:49;;;;;;;0.57;0.57;;;12.40;99.90;;;;;;2055784;28;20183;-73
2021/07/14 05:03:50;;;;;;;0.60;0.60;;;12.40;99.90;;;;;;2056035;28;20191;-73
2021/07/14 05:04:51;;;;;;;0.93;0.70;;;12.40;99.90;;;;;;2048703;29;20207;-74
2021/07/14 05:05:52;;;;;;;1.47;1.20;;;12.50;99.90;;;;;;2056041;28;20681;-73
2021/07/14 05:06:53;;;;;;;0.90;0.85;;;12.50;99.90;;;;;;2055976;28;20231;-73
2021/07/14 05:07:53;;;;;;;0.87;0.87;;;12.50;99.90;;;;;;2056036;28;20180;-73
2021/07/14 05:08:54;;;;;;;0.67;0.67;;;12.50;99.90;;;;;;2056077;28;20183;-73
2021/07/14 05:09:55;;;;;;;1.27;1.17;;;12.50;99.90;;;;;;2055972;28;20175;-73
2021/07/14 05:10:55;;;;;;;0.83;0.57;;;12.50;99.90;;;;;;2055370;28;20186;-74
2021/07/14 05:11:56;;;;;;;1.70;0.77;;;12.50;99.90;;;;;;2055850;28;20211;-73
2021/07/14 05:12:58;;;;;;;0.63;0.57;;;12.50;99.90;;;;;;2056044;28;20175;-74
2021/07/14 05:13:58;;;;;;;0.60;0.60;;;12.60;99.90;;;;;;2055963;28;20254;-73
2021/07/14 05:14:59;;;;;;;0.60;0.60;;;12.70;99.90;;;;;;2055976;28;20603;-73
2021/07/14 05:16:00;;;;;;;0.63;0.63;;;12.80;99.90;;;;;;2055923;28;20234;-74
2021/07/14 05:17:00;;;;;;;1.70;1.10;;;12.80;99.90;;;;;;2055987;28;20182;-73
2021/07/14 05:18:01;;;;;;;0.73;0.73;;;13.00;99.90;;;;;;2047954;29;20183;-73
2021/07/14 05:19:03;;;;;;;0.77;0.73;;;13.10;99.90;;;;;;2048631;29;20186;-73
2021/07/14 05:20:06;;;;;;;0.80;0.80;;;13.20;99.90;;;;;;2048194;29;20211;-74
2021/07/14 05:21:07;;;;;;;0.90;0.90;;;13.20;99.90;;;;;;2048592;29;20258;-74
2021/07/14 05:22:09;;;;;;;0.93;0.93;;;13.20;99.90;;;;;;2055973;28;20634;-73
2021/07/14 05:23:09;;;;;;;1.23;1.13;;;13.30;99.90;;;;;;2055827;28;20734;-74
2021/07/14 05:24:10;;;;;;;1.10;1.00;;;13.40;99.90;;;;;;2055937;28;20269;-74
2021/07/14 05:25:12;;;;;;;0.83;0.80;;;13.50;99.90;;;;;;2055979;28;20183;-73
2021/07/14 05:26:12;;;;;;;0.60;0.60;;;13.60;99.90;;;;;;2047799;28;20933;-74
2021/07/14 05:27:13;;;;;;;1.77;1.33;;;13.60;99.90;;;;;;2048150;29;20190;-73
2021/07/14 05:28:14;;;;;;;0.60;0.53;;;13.60;99.90;;;;;;2055891;28;20241;-73
2021/07/14 05:29:15;;;;;;;0.63;0.63;;;13.60;99.90;;;;;;2056111;28;20289;-73
2021/07/14 05:30:17;;;;;;;0.80;0.80;;;13.60;99.90;;;;;;2055369;28;20310;-73
2021/07/14 05:31:18;;;;;;;0.70;0.70;;;13.50;99.90;;;;;;2055748;28;20226;-74
2021/07/14 05:32:19;;;;;;;1.60;1.37;;;13.60;99.90;;;;;;2047853;29;20218;-74
2021/07/14 05:33:19;;;;;;;0.60;0.60;;;13.60;99.90;;;;;;2048437;29;20180;-74
2021/07/14 05:34:21;;;;;;;0.90;0.90;;;13.60;99.90;;;;;;2061759;28;20260;-74
2021/07/14 05:35:22;;;;;;;0.90;0.90;;;13.70;99.90;;;;;;2064081;28;20673;-73
2021/07/14 05:36:22;;;;;;;0.57;0.57;;;13.70;99.90;;;;;;2056424;28;20174;-73
2021/07/14 05:37:23;;;;;;;0.77;0.50;;;13.70;99.90;;;;;;2056546;28;20182;-73
2021/07/14 05:38:25;;;;;;;0.70;0.70;;;13.80;99.90;;;;;;2063758;28;20615;-73
2021/07/14 05:39:25;;;;;;;0.50;0.50;;;13.90;99.90;;;;;;2063881;28;20795;-73
2021/07/14 05:40:26;;;;;;;2.20;0.80;;;13.90;99.90;;;;;;2047222;29;20191;-73